sensor_id;sensor_type;location;lat;lon;timestamp;pressure;altitude;pressure_sealevel;temperature;humidity
65659;BME280;60181;53.258;6.932;2023-02-18T00:00:19;102117.69;;;13.91;59.79
65659;BME280;60181;53.258;6.932;2023-02-18T00:04:22;102117.65;;;13.90;59.84
65659;BME280;60181;53.258;6.932;2023-02-18T00:08:26;102115.91;;;13.90;59.76
65659;BME280;60181;53.258;6.932;2023-02-18T00:12:31;102114.39;;;13.89;59.89
65659;BME280;60181;53.258;6.932;2023-02-18T00:16:34;102115.63;;;13.89;59.90
65659;BME280;60181;53.258;6.932;2023-02-18T00:20:38;102117.52;;;13.89;59.98
65659;BME280;60181;53.258;6.932;2023-02-18T00:24:42;102116.99;;;13.90;60.00
65659;BME280;60181;53.258;6.932;2023-02-18T00:28:47;102112.87;;;13.90;60.18
65659;BME280;60181;53.258;6.932;2023-02-18T00:32:50;102107.47;;;13.92;60.34
65659;BME280;60181;53.258;6.932;2023-02-18T00:36:54;102101.90;;;13.92;60.43
65659;BME280;60181;53.258;6.932;2023-02-18T00:40:58;102095.43;;;13.91;60.67
65659;BME280;60181;53.258;6.932;2023-02-18T00:45:03;102085.65;;;13.89;60.73
65659;BME280;60181;53.258;6.932;2023-02-18T00:49:06;102077.29;;;13.88;60.70
65659;BME280;60181;53.258;6.932;2023-02-18T00:53:10;102070.04;;;13.88;60.63
65659;BME280;60181;53.258;6.932;2023-02-18T00:57:14;102063.53;;;13.87;60.72
65659;BME280;60181;53.258;6.932;2023-02-18T01:01:18;102056.66;;;13.87;60.72
65659;BME280;60181;53.258;6.932;2023-02-18T01:05:22;102050.20;;;13.86;60.82
65659;BME280;60181;53.258;6.932;2023-02-18T01:09:26;102042.50;;;13.85;60.83
65659;BME280;60181;53.258;6.932;2023-02-18T01:13:30;102037.06;;;13.84;60.84
65659;BME280;60181;53.258;6.932;2023-02-18T01:17:34;102036.32;;;13.84;60.74
65659;BME280;60181;53.258;6.932;2023-02-18T01:21:38;102034.64;;;13.83;60.72
65659;BME280;60181;53.258;6.932;2023-02-18T01:25:42;102031.93;;;13.81;60.67
65659;BME280;60181;53.258;6.932;2023-02-18T01:29:46;102032.39;;;13.80;60.61
65659;BME280;60181;53.258;6.932;2023-02-18T01:33:50;102031.76;;;13.79;60.62
65659;BME280;60181;53.258;6.932;2023-02-18T01:37:54;102030.13;;;13.77;60.58
65659;BME280;60181;53.258;6.932;2023-02-18T01:41:58;102027.50;;;13.77;60.57
65659;BME280;60181;53.258;6.932;2023-02-18T01:46:07;102026.50;;;13.76;60.43
65659;BME280;60181;53.258;6.932;2023-02-18T01:50:06;102023.91;;;13.75;60.56
65659;BME280;60181;53.258;6.932;2023-02-18T01:54:20;102024.00;;;13.75;60.49
65659;BME280;60181;53.258;6.932;2023-02-18T01:58:14;102023.63;;;13.75;60.52
65659;BME280;60181;53.258;6.932;2023-02-18T02:02:19;102022.73;;;13.75;60.56
65659;BME280;60181;53.258;6.932;2023-02-18T02:06:22;102020.37;;;13.75;60.49
65659;BME280;60181;53.258;6.932;2023-02-18T02:10:29;102014.17;;;13.75;60.45
65659;BME280;60181;53.258;6.932;2023-02-18T02:14:34;102006.20;;;13.75;60.52
65659;BME280;60181;53.258;6.932;2023-02-18T02:26:48;101976.53;;;13.74;60.76
65659;BME280;60181;53.258;6.932;2023-02-18T02:30:54;101969.98;;;13.74;60.70
65659;BME280;60181;53.258;6.932;2023-02-18T02:38:55;101952.25;;;13.73;60.97
65659;BME280;60181;53.258;6.932;2023-02-18T02:47:07;101940.14;;;13.72;61.07
65659;BME280;60181;53.258;6.932;2023-02-18T02:51:23;101936.19;;;13.72;61.14
65659;BME280;60181;53.258;6.932;2023-02-18T02:55:11;101929.66;;;13.72;61.33
65659;BME280;60181;53.258;6.932;2023-02-18T02:59:21;101921.25;;;13.71;61.37
65659;BME280;60181;53.258;6.932;2023-02-18T03:11:27;101891.74;;;13.70;61.47
65659;BME280;60181;53.258;6.932;2023-02-18T03:19:35;101871.78;;;13.67;61.52
65659;BME280;60181;53.258;6.932;2023-02-18T03:23:40;101864.95;;;13.66;61.63
65659;BME280;60181;53.258;6.932;2023-02-18T03:27:43;101858.78;;;13.66;61.51
65659;BME280;60181;53.258;6.932;2023-02-18T03:31:48;101854.17;;;13.67;61.56
65659;BME280;60181;53.258;6.932;2023-02-18T03:35:50;101848.36;;;13.68;61.68
65659;BME280;60181;53.258;6.932;2023-02-18T03:39:55;101842.63;;;13.69;61.73
65659;BME280;60181;53.258;6.932;2023-02-18T03:43:59;101837.31;;;13.70;61.82
65659;BME280;60181;53.258;6.932;2023-02-18T03:48:02;101831.58;;;13.71;61.96
65659;BME280;60181;53.258;6.932;2023-02-18T03:52:06;101828.63;;;13.71;61.82
65659;BME280;60181;53.258;6.932;2023-02-18T03:56:10;101829.03;;;13.72;62.05
65659;BME280;60181;53.258;6.932;2023-02-18T04:00:14;101829.38;;;13.74;61.92
65659;BME280;60181;53.258;6.932;2023-02-18T04:04:18;101824.16;;;13.74;62.52
65659;BME280;60181;53.258;6.932;2023-02-18T04:08:22;101815.01;;;13.73;62.39
65659;BME280;60181;53.258;6.932;2023-02-18T04:12:26;101807.10;;;13.75;62.28
65659;BME280;60181;53.258;6.932;2023-02-18T04:16:30;101802.64;;;13.78;62.45
65659;BME280;60181;53.258;6.932;2023-02-18T04:20:34;101798.35;;;13.74;62.80
65659;BME280;60181;53.258;6.932;2023-02-18T04:24:38;101797.05;;;13.70;62.87
65659;BME280;60181;53.258;6.932;2023-02-18T04:28:42;101796.37;;;13.67;62.83
65659;BME280;60181;53.258;6.932;2023-02-18T04:32:46;101794.45;;;13.64;62.97
65659;BME280;60181;53.258;6.932;2023-02-18T04:36:50;101791.13;;;13.62;62.82
65659;BME280;60181;53.258;6.932;2023-02-18T04:40:54;101788.18;;;13.60;63.05
65659;BME280;60181;53.258;6.932;2023-02-18T04:44:58;101784.11;;;13.58;63.00
65659;BME280;60181;53.258;6.932;2023-02-18T04:49:02;101779.94;;;13.63;62.89
65659;BME280;60181;53.258;6.932;2023-02-18T04:53:06;101773.77;;;13.68;62.98
65659;BME280;60181;53.258;6.932;2023-02-18T04:57:10;101764.64;;;13.72;63.25
65659;BME280;60181;53.258;6.932;2023-02-18T05:01:14;101751.45;;;13.74;63.37
65659;BME280;60181;53.258;6.932;2023-02-18T05:05:18;101736.95;;;13.76;63.39
65659;BME280;60181;53.258;6.932;2023-02-18T05:09:22;101724.55;;;13.77;63.42
65659;BME280;60181;53.258;6.932;2023-02-18T05:13:26;101714.20;;;13.78;63.48
65659;BME280;60181;53.258;6.932;2023-02-18T05:17:30;101700.41;;;13.79;63.50
65659;BME280;60181;53.258;6.932;2023-02-18T05:21:34;101685.17;;;13.79;63.56
65659;BME280;60181;53.258;6.932;2023-02-18T05:25:38;101670.19;;;13.79;63.55
65659;BME280;60181;53.258;6.932;2023-02-18T05:29:42;101654.99;;;13.80;63.57
65659;BME280;60181;53.258;6.932;2023-02-18T05:33:46;101640.90;;;13.80;63.57
65659;BME280;60181;53.258;6.932;2023-02-18T05:37:50;101627.15;;;13.80;63.59
65659;BME280;60181;53.258;6.932;2023-02-18T05:41:54;101613.31;;;13.80;63.65
65659;BME280;60181;53.258;6.932;2023-02-18T05:45:58;101600.47;;;13.80;63.65
65659;BME280;60181;53.258;6.932;2023-02-18T05:50:02;101590.67;;;13.80;63.69
65659;BME280;60181;53.258;6.932;2023-02-18T05:54:06;101581.78;;;13.80;63.69
65659;BME280;60181;53.258;6.932;2023-02-18T05:58:10;101573.05;;;13.80;63.75
65659;BME280;60181;53.258;6.932;2023-02-18T06:02:14;101564.81;;;13.80;63.78
65659;BME280;60181;53.258;6.932;2023-02-18T06:06:18;101557.15;;;13.81;63.81
65659;BME280;60181;53.258;6.932;2023-02-18T06:10:22;101547.36;;;13.80;63.84
65659;BME280;60181;53.258;6.932;2023-02-18T06:14:26;101539.37;;;13.81;63.84
65659;BME280;60181;53.258;6.932;2023-02-18T06:18:30;101530.97;;;13.81;63.87
65659;BME280;60181;53.258;6.932;2023-02-18T06:22:34;101523.89;;;13.81;63.91
65659;BME280;60181;53.258;6.932;2023-02-18T06:26:38;101517.05;;;13.80;63.92
65659;BME280;60181;53.258;6.932;2023-02-18T06:30:42;101510.47;;;13.80;63.95
65659;BME280;60181;53.258;6.932;2023-02-18T06:34:46;101504.71;;;13.80;63.99
65659;BME280;60181;53.258;6.932;2023-02-18T06:38:50;101496.39;;;13.80;64.02
65659;BME280;60181;53.258;6.932;2023-02-18T06:42:54;101485.80;;;13.81;64.03
65659;BME280;60181;53.258;6.932;2023-02-18T06:46:58;101477.07;;;13.88;63.33
65659;BME280;60181;53.258;6.932;2023-02-18T06:51:02;101472.54;;;13.95;62.91
65659;BME280;60181;53.258;6.932;2023-02-18T06:55:06;101467.63;;;14.02;64.59
65659;BME280;60181;53.258;6.932;2023-02-18T06:59:10;101462.02;;;14.06;64.05
65659;BME280;60181;53.258;6.932;2023-02-18T07:03:14;101455.91;;;14.08;64.06
65659;BME280;60181;53.258;6.932;2023-02-18T07:07:18;101449.47;;;14.08;64.06
65659;BME280;60181;53.258;6.932;2023-02-18T07:11:22;101443.38;;;14.08;64.12
65659;BME280;60181;53.258;6.932;2023-02-18T07:15:26;101436.88;;;14.08;64.10
65659;BME280;60181;53.258;6.932;2023-02-18T07:19:30;101428.44;;;14.07;64.12
65659;BME280;60181;53.258;6.932;2023-02-18T07:23:34;101420.61;;;14.07;64.07
65659;BME280;60181;53.258;6.932;2023-02-18T07:27:38;101412.70;;;14.07;64.04
65659;BME280;60181;53.258;6.932;2023-02-18T07:31:42;101406.45;;;14.07;64.06
65659;BME280;60181;53.258;6.932;2023-02-18T07:35:46;101401.50;;;14.07;64.07
65659;BME280;60181;53.258;6.932;2023-02-18T07:39:50;101396.07;;;14.07;63.99
65659;BME280;60181;53.258;6.932;2023-02-18T07:43:54;101390.88;;;14.07;64.04
65659;BME280;60181;53.258;6.932;2023-02-18T07:47:58;101387.83;;;14.07;64.04
65659;BME280;60181;53.258;6.932;2023-02-18T07:52:02;101385.36;;;14.07;64.04
65659;BME280;60181;53.258;6.932;2023-02-18T07:56:06;101383.29;;;14.07;64.09
65659;BME280;60181;53.258;6.932;2023-02-18T08:00:10;101381.91;;;14.07;64.12
65659;BME280;60181;53.258;6.932;2023-02-18T08:04:14;101380.30;;;14.06;64.08
65659;BME280;60181;53.258;6.932;2023-02-18T08:08:19;101377.01;;;14.06;64.06
65659;BME280;60181;53.258;6.932;2023-02-18T08:12:22;101373.08;;;14.07;63.96
65659;BME280;60181;53.258;6.932;2023-02-18T08:16:26;101370.78;;;14.07;63.92
65659;BME280;60181;53.258;6.932;2023-02-18T08:20:30;101370.64;;;14.08;63.90
65659;BME280;60181;53.258;6.932;2023-02-18T08:24:34;101368.33;;;14.08;63.88
65659;BME280;60181;53.258;6.932;2023-02-18T08:28:38;101367.78;;;14.09;63.87
65659;BME280;60181;53.258;6.932;2023-02-18T08:32:42;101368.63;;;14.10;63.83
65659;BME280;60181;53.258;6.932;2023-02-18T08:36:46;101366.85;;;14.11;63.79
65659;BME280;60181;53.258;6.932;2023-02-18T08:40:50;101365.72;;;14.12;63.76
65659;BME280;60181;53.258;6.932;2023-02-18T08:44:54;101366.35;;;14.15;63.83
65659;BME280;60181;53.258;6.932;2023-02-18T08:48:58;101365.12;;;14.19;63.76
65659;BME280;60181;53.258;6.932;2023-02-18T08:53:02;101366.91;;;14.21;63.73
65659;BME280;60181;53.258;6.932;2023-02-18T08:57:06;101367.75;;;14.22;63.83
65659;BME280;60181;53.258;6.932;2023-02-18T09:01:10;101368.81;;;14.23;63.98
65659;BME280;60181;53.258;6.932;2023-02-18T09:05:14;101367.77;;;14.24;63.99
65659;BME280;60181;53.258;6.932;2023-02-18T09:09:18;101363.32;;;14.24;64.02
65659;BME280;60181;53.258;6.932;2023-02-18T09:13:22;101360.38;;;14.25;63.98
65659;BME280;60181;53.258;6.932;2023-02-18T09:17:26;101357.50;;;14.25;63.92
65659;BME280;60181;53.258;6.932;2023-02-18T09:21:30;101357.11;;;14.26;63.88
65659;BME280;60181;53.258;6.932;2023-02-18T09:25:33;101355.41;;;14.26;63.90
65659;BME280;60181;53.258;6.932;2023-02-18T09:29:38;101354.17;;;14.27;63.93
65659;BME280;60181;53.258;6.932;2023-02-18T09:33:45;101354.52;;;14.28;63.90
65659;BME280;60181;53.258;6.932;2023-02-18T09:37:45;101353.20;;;14.28;63.91
65659;BME280;60181;53.258;6.932;2023-02-18T09:41:56;101352.45;;;14.28;63.93
65659;BME280;60181;53.258;6.932;2023-02-18T09:45:53;101355.36;;;14.29;63.88
65659;BME280;60181;53.258;6.932;2023-02-18T09:49:59;101358.20;;;14.30;63.94
65659;BME280;60181;53.258;6.932;2023-02-18T09:54:01;101360.01;;;14.30;64.00
65659;BME280;60181;53.258;6.932;2023-02-18T09:58:06;101361.27;;;14.31;63.97
65659;BME280;60181;53.258;6.932;2023-02-18T10:02:10;101361.67;;;14.32;63.94
65659;BME280;60181;53.258;6.932;2023-02-18T10:06:26;101363.51;;;14.33;63.91
65659;BME280;60181;53.258;6.932;2023-02-18T10:14:21;101362.33;;;14.35;63.94
65659;BME280;60181;53.258;6.932;2023-02-18T10:22:29;101362.27;;;14.35;64.00
65659;BME280;60181;53.258;6.932;2023-02-18T10:26:34;101362.27;;;14.36;64.04
65659;BME280;60181;53.258;6.932;2023-02-18T10:30:49;101362.02;;;14.36;64.02
65659;BME280;60181;53.258;6.932;2023-02-18T10:34:43;101363.53;;;14.37;64.06
65659;BME280;60181;53.258;6.932;2023-02-18T10:47:05;101371.36;;;14.36;64.15
65659;BME280;60181;53.258;6.932;2023-02-18T10:50:58;101373.17;;;14.36;64.15
65659;BME280;60181;53.258;6.932;2023-02-18T10:55:03;101375.56;;;14.37;64.13
65659;BME280;60181;53.258;6.932;2023-02-18T10:59:13;101378.64;;;14.38;64.10
65659;BME280;60181;53.258;6.932;2023-02-18T11:03:17;101382.09;;;14.39;64.00
65659;BME280;60181;53.258;6.932;2023-02-18T11:07:15;101384.84;;;14.39;64.04
65659;BME280;60181;53.258;6.932;2023-02-18T11:11:20;101388.65;;;14.40;64.08
65659;BME280;60181;53.258;6.932;2023-02-18T11:15:23;101393.30;;;14.41;64.11
65659;BME280;60181;53.258;6.932;2023-02-18T11:19:35;101398.16;;;14.41;64.06
65659;BME280;60181;53.258;6.932;2023-02-18T11:23:31;101402.28;;;14.42;64.13
65659;BME280;60181;53.258;6.932;2023-02-18T11:27:37;101406.09;;;14.42;64.11
65659;BME280;60181;53.258;6.932;2023-02-18T11:31:44;101411.69;;;14.43;64.07
65659;BME280;60181;53.258;6.932;2023-02-18T11:35:47;101415.92;;;14.43;64.12
65659;BME280;60181;53.258;6.932;2023-02-18T11:39:46;101417.11;;;14.44;64.11
65659;BME280;60181;53.258;6.932;2023-02-18T11:43:50;101420.01;;;14.46;64.07
65659;BME280;60181;53.258;6.932;2023-02-18T11:48:00;101420.28;;;14.47;63.98
65659;BME280;60181;53.258;6.932;2023-02-18T11:56:05;101427.42;;;14.49;64.00
65659;BME280;60181;53.258;6.932;2023-02-18T12:04:13;101433.24;;;14.51;64.03
65659;BME280;60181;53.258;6.932;2023-02-18T12:08:18;101437.06;;;14.52;63.93
65659;BME280;60181;53.258;6.932;2023-02-18T12:20:34;101447.05;;;14.57;63.82
65659;BME280;60181;53.258;6.932;2023-02-18T12:48:59;101457.79;;;14.66;63.74
65659;BME280;60181;53.258;6.932;2023-02-18T12:53:19;101461.53;;;14.67;63.66
65659;BME280;60181;53.258;6.932;2023-02-18T12:57:08;101463.56;;;14.69;63.72
65659;BME280;60181;53.258;6.932;2023-02-18T13:01:08;101466.14;;;14.69;63.77
65659;BME280;60181;53.258;6.932;2023-02-18T13:09:18;101474.19;;;14.72;63.69
65659;BME280;60181;53.258;6.932;2023-02-18T13:13:24;101478.34;;;14.73;63.67
65659;BME280;60181;53.258;6.932;2023-02-18T13:17:21;101480.10;;;14.74;63.62
65659;BME280;60181;53.258;6.932;2023-02-18T13:21:25;101484.92;;;14.76;63.62
65659;BME280;60181;53.258;6.932;2023-02-18T13:25:31;101488.39;;;14.76;63.66
65659;BME280;60181;53.258;6.932;2023-02-18T13:29:35;101491.22;;;14.77;63.75
65659;BME280;60181;53.258;6.932;2023-02-18T13:33:49;101494.59;;;14.77;63.72
65659;BME280;60181;53.258;6.932;2023-02-18T13:41:47;101498.88;;;14.77;63.74
65659;BME280;60181;53.258;6.932;2023-02-18T13:49:53;101503.30;;;14.79;63.66
65659;BME280;60181;53.258;6.932;2023-02-18T13:54:05;101505.97;;;14.80;63.61
65659;BME280;60181;53.258;6.932;2023-02-18T13:58:01;101507.53;;;14.80;63.69
65659;BME280;60181;53.258;6.932;2023-02-18T14:06:16;101512.45;;;14.79;63.84
65659;BME280;60181;53.258;6.932;2023-02-18T14:18:22;101519.69;;;14.89;64.81
65659;BME280;60181;53.258;6.932;2023-02-18T14:26:30;101529.69;;;14.90;64.85
65659;BME280;60181;53.258;6.932;2023-02-18T14:30:37;101532.93;;;14.89;64.73
65659;BME280;60181;53.258;6.932;2023-02-18T14:34:42;101537.13;;;14.87;64.65
65659;BME280;60181;53.258;6.932;2023-02-18T14:38:59;101539.54;;;14.85;64.66
65659;BME280;60181;53.258;6.932;2023-02-18T14:42:48;101542.55;;;14.83;64.68
65659;BME280;60181;53.258;6.932;2023-02-18T14:47:06;101546.46;;;14.80;64.73
65659;BME280;60181;53.258;6.932;2023-02-18T14:50:53;101552.43;;;14.79;64.86
65659;BME280;60181;53.258;6.932;2023-02-18T14:54:57;101558.17;;;14.77;64.70
65659;BME280;60181;53.258;6.932;2023-02-18T14:59:01;101563.84;;;14.76;64.72
65659;BME280;60181;53.258;6.932;2023-02-18T15:03:15;101569.18;;;14.75;64.76
65659;BME280;60181;53.258;6.932;2023-02-18T15:07:09;101575.50;;;14.74;64.76
65659;BME280;60181;53.258;6.932;2023-02-18T15:11:13;101581.19;;;14.73;64.77
65659;BME280;60181;53.258;6.932;2023-02-18T15:15:17;101587.84;;;14.73;64.80
65659;BME280;60181;53.258;6.932;2023-02-18T15:19:22;101593.18;;;14.72;64.79
65659;BME280;60181;53.258;6.932;2023-02-18T15:23:25;101598.79;;;14.71;64.75
65659;BME280;60181;53.258;6.932;2023-02-18T15:27:29;101604.06;;;14.71;64.70
65659;BME280;60181;53.258;6.932;2023-02-18T15:31:37;101607.86;;;14.71;64.73
65659;BME280;60181;53.258;6.932;2023-02-18T15:35:39;101611.66;;;14.71;64.76
65659;BME280;60181;53.258;6.932;2023-02-18T15:39:41;101615.03;;;14.71;64.73
65659;BME280;60181;53.258;6.932;2023-02-18T15:43:54;101618.22;;;14.71;64.79
65659;BME280;60181;53.258;6.932;2023-02-18T15:47:53;101621.69;;;14.71;64.77
65659;BME280;60181;53.258;6.932;2023-02-18T15:51:54;101625.23;;;14.71;64.75
65659;BME280;60181;53.258;6.932;2023-02-18T15:55:57;101630.67;;;14.70;64.82
65659;BME280;60181;53.258;6.932;2023-02-18T16:00:13;101636.03;;;14.71;65.76
65659;BME280;60181;53.258;6.932;2023-02-18T16:04:05;101641.12;;;14.76;65.02
65659;BME280;60181;53.258;6.932;2023-02-18T16:08:16;101646.58;;;14.78;65.38
65659;BME280;60181;53.258;6.932;2023-02-18T16:12:18;101649.89;;;14.77;65.03
65659;BME280;60181;53.258;6.932;2023-02-18T16:16:23;101652.74;;;14.76;64.87
65659;BME280;60181;53.258;6.932;2023-02-18T16:20:25;101657.17;;;14.75;64.95
65659;BME280;60181;53.258;6.932;2023-02-18T16:24:26;101661.44;;;14.73;65.17
65659;BME280;60181;53.258;6.932;2023-02-18T16:28:31;101664.34;;;14.72;65.21
65659;BME280;60181;53.258;6.932;2023-02-18T16:32:33;101666.71;;;14.70;65.22
65659;BME280;60181;53.258;6.932;2023-02-18T16:36:37;101671.22;;;14.69;65.32
65659;BME280;60181;53.258;6.932;2023-02-18T16:40:41;101673.25;;;14.68;65.27
65659;BME280;60181;53.258;6.932;2023-02-18T16:44:45;101675.25;;;14.67;65.33
65659;BME280;60181;53.258;6.932;2023-02-18T16:48:49;101676.87;;;14.66;65.35
65659;BME280;60181;53.258;6.932;2023-02-18T16:52:53;101680.35;;;14.66;65.48
65659;BME280;60181;53.258;6.932;2023-02-18T16:56:57;101684.12;;;14.66;65.29
65659;BME280;60181;53.258;6.932;2023-02-18T17:01:01;101688.33;;;14.66;65.34
65659;BME280;60181;53.258;6.932;2023-02-18T17:05:05;101692.13;;;14.66;65.40
65659;BME280;60181;53.258;6.932;2023-02-18T17:09:11;101695.48;;;14.65;65.35
65659;BME280;60181;53.258;6.932;2023-02-18T17:13:14;101699.00;;;14.64;65.38
65659;BME280;60181;53.258;6.932;2023-02-18T17:17:17;101702.95;;;14.64;65.42
65659;BME280;60181;53.258;6.932;2023-02-18T17:21:22;101705.89;;;14.63;65.38
65659;BME280;60181;53.258;6.932;2023-02-18T17:25:32;101709.77;;;14.63;65.41
65659;BME280;60181;53.258;6.932;2023-02-18T17:29:29;101713.16;;;14.63;65.39
65659;BME280;60181;53.258;6.932;2023-02-18T17:33:33;101716.53;;;14.62;65.37
65659;BME280;60181;53.258;6.932;2023-02-18T17:37:37;101720.33;;;14.62;65.36
65659;BME280;60181;53.258;6.932;2023-02-18T17:41:41;101724.86;;;14.62;65.42
65659;BME280;60181;53.258;6.932;2023-02-18T17:45:48;101729.57;;;14.62;65.40
65659;BME280;60181;53.258;6.932;2023-02-18T17:49:49;101734.69;;;14.75;64.55
65659;BME280;60181;53.258;6.932;2023-02-18T17:53:53;101739.37;;;14.87;64.87
65659;BME280;60181;53.258;6.932;2023-02-18T17:57:57;101741.33;;;14.89;65.70
65659;BME280;60181;53.258;6.932;2023-02-18T18:02:01;101744.08;;;14.87;65.79
65659;BME280;60181;53.258;6.932;2023-02-18T18:06:08;101746.96;;;14.84;65.99
65659;BME280;60181;53.258;6.932;2023-02-18T18:10:09;101750.37;;;14.81;66.00
65659;BME280;60181;53.258;6.932;2023-02-18T18:14:13;101752.62;;;14.79;66.07
65659;BME280;60181;53.258;6.932;2023-02-18T18:18:17;101753.88;;;14.77;66.03
65659;BME280;60181;53.258;6.932;2023-02-18T18:22:21;101756.87;;;14.75;66.07
65659;BME280;60181;53.258;6.932;2023-02-18T18:26:25;101760.39;;;14.74;65.97
65659;BME280;60181;53.258;6.932;2023-02-18T18:30:30;101761.19;;;14.73;66.01
65659;BME280;60181;53.258;6.932;2023-02-18T18:34:33;101761.08;;;14.72;65.92
65659;BME280;60181;53.258;6.932;2023-02-18T18:38:37;101761.33;;;14.71;65.98
65659;BME280;60181;53.258;6.932;2023-02-18T18:42:41;101762.95;;;14.71;65.90
65659;BME280;60181;53.258;6.932;2023-02-18T18:46:45;101765.17;;;14.70;65.93
65659;BME280;60181;53.258;6.932;2023-02-18T18:50:49;101769.59;;;14.69;65.98
65659;BME280;60181;53.258;6.932;2023-02-18T18:54:53;101773.97;;;14.69;65.90
65659;BME280;60181;53.258;6.932;2023-02-18T18:58:57;101775.92;;;14.69;65.91
65659;BME280;60181;53.258;6.932;2023-02-18T19:03:01;101776.40;;;14.68;65.99
65659;BME280;60181;53.258;6.932;2023-02-18T19:07:05;101777.26;;;14.72;65.64
65659;BME280;60181;53.258;6.932;2023-02-18T19:11:09;101779.55;;;14.75;65.50
65659;BME280;60181;53.258;6.932;2023-02-18T19:15:14;101780.95;;;14.74;65.85
65659;BME280;60181;53.258;6.932;2023-02-18T19:19:17;101781.09;;;14.73;65.95
65659;BME280;60181;53.258;6.932;2023-02-18T19:23:21;101778.75;;;14.72;66.04
65659;BME280;60181;53.258;6.932;2023-02-18T19:27:25;101776.83;;;14.72;66.00
65659;BME280;60181;53.258;6.932;2023-02-18T19:31:29;101774.91;;;14.71;65.99
65659;BME280;60181;53.258;6.932;2023-02-18T19:35:33;101772.02;;;14.70;65.98
65659;BME280;60181;53.258;6.932;2023-02-18T19:39:37;101767.28;;;14.69;65.96
65659;BME280;60181;53.258;6.932;2023-02-18T19:43:41;101765.47;;;14.69;66.00
65659;BME280;60181;53.258;6.932;2023-02-18T19:47:45;101765.86;;;14.69;65.90
65659;BME280;60181;53.258;6.932;2023-02-18T19:51:49;101764.53;;;14.68;65.92
65659;BME280;60181;53.258;6.932;2023-02-18T19:55:56;101764.29;;;14.68;65.93
65659;BME280;60181;53.258;6.932;2023-02-18T19:59:57;101764.72;;;14.67;65.90
65659;BME280;60181;53.258;6.932;2023-02-18T20:04:01;101765.47;;;14.67;65.92
65659;BME280;60181;53.258;6.932;2023-02-18T20:08:05;101764.89;;;14.67;65.93
65659;BME280;60181;53.258;6.932;2023-02-18T20:12:09;101762.13;;;14.66;65.91
65659;BME280;60181;53.258;6.932;2023-02-18T20:16:13;101757.03;;;14.66;65.85
65659;BME280;60181;53.258;6.932;2023-02-18T20:20:18;101752.66;;;14.66;65.86
65659;BME280;60181;53.258;6.932;2023-02-18T20:24:21;101751.42;;;14.65;65.82
65659;BME280;60181;53.258;6.932;2023-02-18T20:28:25;101750.09;;;14.65;65.84
65659;BME280;60181;53.258;6.932;2023-02-18T20:32:29;101749.49;;;14.65;65.81
65659;BME280;60181;53.258;6.932;2023-02-18T20:36:33;101747.85;;;14.65;65.81
65659;BME280;60181;53.258;6.932;2023-02-18T20:40:36;101746.61;;;14.65;65.84
65659;BME280;60181;53.258;6.932;2023-02-18T20:44:40;101745.39;;;14.66;65.76
65659;BME280;60181;53.258;6.932;2023-02-18T20:48:45;101743.02;;;14.68;65.62
65659;BME280;60181;53.258;6.932;2023-02-18T20:52:48;101742.27;;;14.69;65.76
65659;BME280;60181;53.258;6.932;2023-02-18T20:56:52;101740.20;;;14.68;65.85
65659;BME280;60181;53.258;6.932;2023-02-18T21:00:57;101737.33;;;14.68;65.86
65659;BME280;60181;53.258;6.932;2023-02-18T21:05:01;101735.52;;;14.68;65.86
65659;BME280;60181;53.258;6.932;2023-02-18T21:09:05;101734.19;;;14.68;65.84
65659;BME280;60181;53.258;6.932;2023-02-18T21:13:08;101731.03;;;14.68;65.87
65659;BME280;60181;53.258;6.932;2023-02-18T21:17:12;101726.73;;;14.68;65.86
65659;BME280;60181;53.258;6.932;2023-02-18T21:21:17;101721.34;;;14.67;65.81
65659;BME280;60181;53.258;6.932;2023-02-18T21:25:20;101717.72;;;14.67;65.77
65659;BME280;60181;53.258;6.932;2023-02-18T21:29:24;101714.34;;;14.67;65.81
65659;BME280;60181;53.258;6.932;2023-02-18T21:33:28;101715.00;;;14.67;65.75
65659;BME280;60181;53.258;6.932;2023-02-18T21:37:32;101715.73;;;14.67;65.75
65659;BME280;60181;53.258;6.932;2023-02-18T21:41:37;101714.26;;;14.67;65.79
65659;BME280;60181;53.258;6.932;2023-02-18T21:45:40;101709.39;;;14.67;65.81
65659;BME280;60181;53.258;6.932;2023-02-18T21:49:44;101703.53;;;14.67;65.78
65659;BME280;60181;53.258;6.932;2023-02-18T21:53:48;101697.93;;;14.67;65.73
65659;BME280;60181;53.258;6.932;2023-02-18T21:57:52;101692.99;;;14.67;65.75
65659;BME280;60181;53.258;6.932;2023-02-18T22:01:56;101689.36;;;14.67;65.75
65659;BME280;60181;53.258;6.932;2023-02-18T22:06:00;101683.63;;;14.66;65.75
65659;BME280;60181;53.258;6.932;2023-02-18T22:10:05;101678.69;;;14.66;65.74
65659;BME280;60181;53.258;6.932;2023-02-18T22:14:12;101672.67;;;14.66;65.72
65659;BME280;60181;53.258;6.932;2023-02-18T22:18:12;101667.89;;;14.66;65.69
65659;BME280;60181;53.258;6.932;2023-02-18T22:22:16;101662.50;;;14.64;66.35
65659;BME280;60181;53.258;6.932;2023-02-18T22:26:20;101658.15;;;14.66;64.72
65659;BME280;60181;53.258;6.932;2023-02-18T22:30:24;101652.69;;;14.61;65.25
65659;BME280;60181;53.258;6.932;2023-02-18T22:34:28;101647.74;;;14.55;65.27
65659;BME280;60181;53.258;6.932;2023-02-18T22:38:33;101644.85;;;14.49;65.33
65659;BME280;60181;53.258;6.932;2023-02-18T22:42:36;101640.34;;;14.43;65.40
65659;BME280;60181;53.258;6.932;2023-02-18T22:46:40;101636.84;;;14.38;65.34
65659;BME280;60181;53.258;6.932;2023-02-18T22:50:44;101635.58;;;14.34;65.45
65659;BME280;60181;53.258;6.932;2023-02-18T22:54:48;101634.17;;;14.30;65.33
65659;BME280;60181;53.258;6.932;2023-02-18T22:58:53;101632.11;;;14.27;65.41
65659;BME280;60181;53.258;6.932;2023-02-18T23:02:56;101627.82;;;14.24;65.54
65659;BME280;60181;53.258;6.932;2023-02-18T23:07:00;101624.99;;;14.23;65.38